createdAt,value
2022-11-30T00:00:34.473Z,77.62
2022-11-30T00:01:34.479Z,77.50
2022-11-30T00:02:34.513Z,77.94
2022-11-30T00:03:34.454Z,77.92
2022-11-30T00:04:34.431Z,77.86
2022-11-30T00:05:34.411Z,77.83
2022-11-30T00:06:34.417Z,77.79
2022-11-30T00:07:34.448Z,78.15
2022-11-30T00:08:34.376Z,78.27
2022-11-30T00:09:34.358Z,77.90
2022-11-30T00:10:34.342Z,77.65
2022-11-30T00:11:34.343Z,77.67
2022-11-30T00:12:34.320Z,77.91
2022-11-30T00:13:34.323Z,77.68
2022-11-30T00:14:34.291Z,77.45
2022-11-30T00:15:34.281Z,77.55
2022-11-30T00:16:34.354Z,77.86
2022-11-30T00:17:34.254Z,78.01
2022-11-30T00:18:34.244Z,77.64
2022-11-30T00:19:34.232Z,77.58
2022-11-30T00:20:34.215Z,77.60
2022-11-30T00:21:34.217Z,77.68
2022-11-30T00:22:34.222Z,77.51
2022-11-30T00:23:34.189Z,77.05
2022-11-30T00:24:34.174Z,77.21
2022-11-30T00:25:34.177Z,77.48
2022-11-30T00:26:34.142Z,77.42
2022-11-30T00:27:34.143Z,77.18
2022-11-30T00:28:34.122Z,77.21
2022-11-30T00:29:34.121Z,77.15
2022-11-30T00:30:34.134Z,77.18
2022-11-30T00:31:34.118Z,77.44
2022-11-30T00:32:34.073Z,77.62
2022-11-30T00:33:34.065Z,77.62
2022-11-30T00:34:34.065Z,77.52
2022-11-30T00:35:34.035Z,77.83
2022-11-30T00:36:34.059Z,77.97
2022-11-30T00:37:34.026Z,77.55
2022-11-30T00:38:33.992Z,77.48
2022-11-30T00:39:35.652Z,77.38
2022-11-30T00:40:33.964Z,77.30
2022-11-30T00:41:33.966Z,77.40
2022-11-30T00:42:33.941Z,77.78
2022-11-30T00:43:33.939Z,77.77
2022-11-30T00:44:33.934Z,77.51
2022-11-30T00:45:33.935Z,77.56
2022-11-30T00:46:34.020Z,77.69
2022-11-30T00:47:33.887Z,77.62
2022-11-30T00:48:33.875Z,77.87
2022-11-30T00:49:33.874Z,77.73
2022-11-30T00:50:33.869Z,77.38
2022-11-30T00:51:33.841Z,77.37
2022-11-30T00:52:33.823Z,77.60
2022-11-30T00:53:33.807Z,77.68
2022-11-30T00:54:33.813Z,77.75
2022-11-30T00:55:33.785Z,77.40
2022-11-30T00:56:33.772Z,77.23
2022-11-30T00:57:33.761Z,77.44
2022-11-30T00:58:33.741Z,77.53
2022-11-30T00:59:33.733Z,77.81
2022-11-30T01:00:33.716Z,77.48
2022-11-30T01:01:33.801Z,77.44
2022-11-30T01:02:33.726Z,77.20
2022-11-30T01:03:33.691Z,77.08
2022-11-30T01:04:33.672Z,76.88
2022-11-30T01:05:33.689Z,76.76
2022-11-30T01:06:33.639Z,76.78
2022-11-30T01:07:33.665Z,76.87
2022-11-30T01:08:33.623Z,76.98
2022-11-30T01:09:33.612Z,76.96
2022-11-30T01:10:33.601Z,76.92
2022-11-30T01:11:33.588Z,76.93
2022-11-30T01:12:33.567Z,77.00
2022-11-30T01:13:33.556Z,76.63
2022-11-30T01:14:33.536Z,76.69
2022-11-30T01:15:33.541Z,76.88
2022-11-30T01:16:33.529Z,76.98
2022-11-30T01:17:33.505Z,76.72
2022-11-30T01:18:33.502Z,76.79
2022-11-30T01:19:33.477Z,76.59
2022-11-30T01:20:33.466Z,76.41
2022-11-30T01:21:33.455Z,76.47
2022-11-30T01:22:33.441Z,76.57
2022-11-30T01:23:33.444Z,76.97
2022-11-30T01:24:33.417Z,77.30
2022-11-30T01:25:33.407Z,77.03
2022-11-30T01:26:33.395Z,76.86
2022-11-30T01:27:33.380Z,76.88
2022-11-30T01:28:33.382Z,76.95
2022-11-30T01:29:33.353Z,76.89
2022-11-30T01:30:33.410Z,76.86
2022-11-30T01:31:33.344Z,77.10
2022-11-30T01:32:33.321Z,76.99
2022-11-30T01:33:33.319Z,76.87
2022-11-30T01:34:33.293Z,76.92
2022-11-30T01:35:33.289Z,76.87
2022-11-30T01:36:33.262Z,76.86
2022-11-30T01:37:33.255Z,76.99
2022-11-30T01:38:33.244Z,76.82
2022-11-30T01:39:33.232Z,76.94
2022-11-30T01:40:33.218Z,77.01
2022-11-30T01:41:33.203Z,76.73
2022-11-30T01:42:33.205Z,76.78
2022-11-30T01:43:33.175Z,76.68
2022-11-30T01:44:33.190Z,76.67
2022-11-30T01:45:33.158Z,76.77
2022-11-30T01:46:33.198Z,76.66
2022-11-30T01:47:33.165Z,76.69
2022-11-30T01:48:33.119Z,76.86
2022-11-30T01:49:33.134Z,76.56
2022-11-30T01:50:33.123Z,76.53
2022-11-30T01:51:33.069Z,76.63
2022-11-30T01:52:33.090Z,76.65
2022-11-30T01:53:33.048Z,76.77
2022-11-30T01:54:33.032Z,76.90
2022-11-30T01:55:33.031Z,76.80
2022-11-30T01:56:33.020Z,76.58
2022-11-30T01:57:33.001Z,76.53
2022-11-30T01:58:32.987Z,76.49
2022-11-30T01:59:32.999Z,76.47
2022-11-30T02:00:32.964Z,76.49
2022-11-30T02:01:32.967Z,76.42
2022-11-30T02:02:32.961Z,76.62
2022-11-30T02:03:32.940Z,76.43
2022-11-30T02:04:32.908Z,76.54
2022-11-30T02:05:32.897Z,76.42
2022-11-30T02:06:32.874Z,76.44
2022-11-30T02:07:33.085Z,76.50
2022-11-30T02:08:33.069Z,76.47
2022-11-30T02:09:32.858Z,76.40
2022-11-30T02:10:32.879Z,76.42
2022-11-30T02:11:32.805Z,76.23
2022-11-30T02:12:32.802Z,76.51
2022-11-30T02:13:32.782Z,76.60
2022-11-30T02:14:32.789Z,76.19
2022-11-30T02:15:32.801Z,76.23
2022-11-30T02:16:32.744Z,76.37
2022-11-30T02:17:32.729Z,76.36
2022-11-30T02:18:32.720Z,76.23
2022-11-30T02:19:32.711Z,76.46
2022-11-30T02:20:32.698Z,76.65
2022-11-30T02:21:32.674Z,76.52
2022-11-30T02:22:32.690Z,76.18
2022-11-30T02:23:36.543Z,76.13
2022-11-30T02:24:32.652Z,76.24
2022-11-30T02:25:32.626Z,76.46
2022-11-30T02:26:32.614Z,76.41
2022-11-30T02:27:32.622Z,76.34
2022-11-30T02:28:32.628Z,76.32
2022-11-30T02:29:32.593Z,76.31
2022-11-30T02:30:32.592Z,76.49
2022-11-30T02:31:32.550Z,76.70
2022-11-30T02:32:32.572Z,76.55
2022-11-30T02:33:32.524Z,76.76
2022-11-30T02:34:32.526Z,76.60
2022-11-30T02:35:32.527Z,76.42
2022-11-30T02:36:32.485Z,76.54
2022-11-30T02:37:32.471Z,76.75
2022-11-30T02:38:32.485Z,76.66
2022-11-30T02:39:32.493Z,76.37
2022-11-30T02:40:32.442Z,76.48
2022-11-30T02:41:37.682Z,76.75
2022-11-30T02:42:32.425Z,76.84
2022-11-30T02:43:32.403Z,76.88
2022-11-30T02:44:32.382Z,77.03
2022-11-30T02:45:32.391Z,76.95
2022-11-30T02:46:32.384Z,76.86
2022-11-30T02:47:32.346Z,76.85
2022-11-30T02:48:32.347Z,76.80
2022-11-30T02:49:32.316Z,76.66
2022-11-30T02:50:32.304Z,76.74
2022-11-30T02:51:32.302Z,76.67
2022-11-30T02:52:32.283Z,76.61
2022-11-30T02:53:32.283Z,76.53
2022-11-30T02:54:32.262Z,76.64
2022-11-30T02:55:32.248Z,76.72
2022-11-30T02:56:32.273Z,76.66
2022-11-30T02:57:32.238Z,76.45
2022-11-30T02:58:32.224Z,76.50
2022-11-30T02:59:32.192Z,76.60
2022-11-30T03:00:32.206Z,76.72
2022-11-30T03:01:32.225Z,76.50
2022-11-30T03:02:32.180Z,76.61
2022-11-30T03:03:32.144Z,77.10
2022-11-30T03:04:32.142Z,77.04
2022-11-30T03:05:32.115Z,77.16
2022-11-30T03:06:32.114Z,76.77
2022-11-30T03:07:38.689Z,76.65
2022-11-30T03:08:32.086Z,76.81
2022-11-30T03:09:32.075Z,76.78
2022-11-30T03:10:32.065Z,77.21
2022-11-30T03:11:32.059Z,77.30
2022-11-30T03:12:32.034Z,76.85
2022-11-30T03:13:32.033Z,76.81
2022-11-30T03:14:32.014Z,76.73
2022-11-30T03:15:32.105Z,76.63
2022-11-30T03:16:31.986Z,76.60
2022-11-30T03:17:31.967Z,76.90
2022-11-30T03:18:31.986Z,76.64
2022-11-30T03:19:31.952Z,76.82
2022-11-30T03:20:31.934Z,76.76
2022-11-30T03:21:31.912Z,76.79
2022-11-30T03:22:31.915Z,76.87
2022-11-30T03:23:31.899Z,76.71
2022-11-30T03:24:31.878Z,76.85
2022-11-30T03:25:31.890Z,76.88
2022-11-30T03:26:31.857Z,76.90
2022-11-30T03:27:31.847Z,76.97
2022-11-30T03:28:31.877Z,76.99
2022-11-30T03:29:31.822Z,77.08
2022-11-30T03:30:31.804Z,77.44
2022-11-30T03:31:31.834Z,77.16
2022-11-30T03:32:31.802Z,76.97
2022-11-30T03:33:31.770Z,77.16
2022-11-30T03:34:31.750Z,77.21
2022-11-30T03:35:31.771Z,76.91
2022-11-30T03:36:31.731Z,76.73
2022-11-30T03:37:31.714Z,76.79
2022-11-30T03:38:31.701Z,76.73
2022-11-30T03:39:31.686Z,76.78
2022-11-30T03:40:31.685Z,76.88
2022-11-30T03:41:31.660Z,76.64
2022-11-30T03:42:31.663Z,76.49
2022-11-30T03:43:31.672Z,76.26
2022-11-30T03:44:31.635Z,76.29
2022-11-30T03:45:31.617Z,76.11
2022-11-30T03:46:31.675Z,75.89
2022-11-30T03:47:31.611Z,76.21
2022-11-30T03:48:31.607Z,76.03
2022-11-30T03:49:31.563Z,75.84
2022-11-30T03:50:31.574Z,75.83
2022-11-30T03:51:31.537Z,75.58
2022-11-30T03:52:31.528Z,75.48
2022-11-30T03:53:31.540Z,75.94
2022-11-30T03:54:31.538Z,75.83
2022-11-30T03:55:31.496Z,75.44
2022-11-30T03:56:31.476Z,75.35
2022-11-30T03:57:31.486Z,75.58
2022-11-30T03:58:31.496Z,75.15
2022-11-30T03:59:31.454Z,75.04
2022-11-30T04:00:31.474Z,74.99
2022-11-30T04:01:31.453Z,74.83
2022-11-30T04:02:31.463Z,74.79
2022-11-30T04:03:31.387Z,74.97
2022-11-30T04:04:31.393Z,74.88
2022-11-30T04:05:31.367Z,74.93
2022-11-30T04:06:31.358Z,75.14
2022-11-30T04:07:31.413Z,74.90
2022-11-30T04:08:31.348Z,75.01
2022-11-30T04:09:31.313Z,75.15
2022-11-30T04:10:31.303Z,75.55
2022-11-30T04:11:31.363Z,75.72
2022-11-30T04:12:31.286Z,75.84
2022-11-30T04:13:31.264Z,75.81
2022-11-30T04:14:31.255Z,75.22
2022-11-30T04:15:31.252Z,75.10
2022-11-30T04:16:31.318Z,74.86
2022-11-30T04:17:31.212Z,74.96
2022-11-30T04:18:31.208Z,75.06
2022-11-30T04:19:31.197Z,74.97
2022-11-30T04:20:32.301Z,74.91
2022-11-30T04:21:31.175Z,74.88
2022-11-30T04:22:31.167Z,75.14
2022-11-30T04:23:31.145Z,75.16
2022-11-30T04:24:31.139Z,74.99
2022-11-30T04:25:31.113Z,74.97
2022-11-30T04:26:31.124Z,74.74
2022-11-30T04:27:31.090Z,74.77
2022-11-30T04:28:31.099Z,74.88
2022-11-30T04:29:31.065Z,74.98
2022-11-30T04:30:31.050Z,74.94
2022-11-30T04:31:31.116Z,74.92
2022-11-30T04:32:31.023Z,75.06
2022-11-30T04:33:31.005Z,75.11
2022-11-30T04:34:31.005Z,75.32
2022-11-30T04:35:30.985Z,75.61
2022-11-30T04:36:30.994Z,75.53
2022-11-30T04:37:30.953Z,75.25
2022-11-30T04:38:30.944Z,75.29
2022-11-30T04:39:30.940Z,75.29
2022-11-30T04:40:30.933Z,75.35
2022-11-30T04:41:30.910Z,75.35
2022-11-30T04:42:30.900Z,75.35
2022-11-30T04:43:30.874Z,75.46
2022-11-30T04:44:30.882Z,75.66
2022-11-30T04:45:35.204Z,75.75
2022-11-30T04:46:30.885Z,75.82
2022-11-30T04:47:30.824Z,75.57
2022-11-30T04:48:30.817Z,75.91
2022-11-30T04:49:30.811Z,75.92
2022-11-30T04:50:30.790Z,75.95
2022-11-30T04:51:30.774Z,75.93
2022-11-30T04:52:30.780Z,76.05
2022-11-30T04:53:30.749Z,75.85
2022-11-30T04:54:30.751Z,75.87
2022-11-30T04:55:30.720Z,75.81
2022-11-30T04:56:30.712Z,76.06
2022-11-30T04:57:30.723Z,76.22
2022-11-30T04:58:30.694Z,76.16
2022-11-30T04:59:30.676Z,76.26
2022-11-30T05:00:30.658Z,75.91
2022-11-30T05:01:30.732Z,75.74
2022-11-30T05:02:30.636Z,75.91
2022-11-30T05:03:30.616Z,75.95
2022-11-30T05:04:30.674Z,75.93
2022-11-30T05:05:30.591Z,75.97
2022-11-30T05:06:30.581Z,76.06
2022-11-30T05:07:30.655Z,76.21
2022-11-30T05:08:30.557Z,76.25
2022-11-30T05:09:30.561Z,76.11
2022-11-30T05:10:30.551Z,76.05
2022-11-30T05:11:30.517Z,75.93
2022-11-30T05:12:30.505Z,75.98
2022-11-30T05:13:30.495Z,75.98
2022-11-30T05:14:30.505Z,76.09
2022-11-30T05:15:30.471Z,76.27
2022-11-30T05:16:30.516Z,76.38
2022-11-30T05:17:30.440Z,76.49
2022-11-30T05:18:30.461Z,76.36
2022-11-30T05:19:30.457Z,75.98
2022-11-30T05:20:30.422Z,75.97
2022-11-30T05:21:30.398Z,76.05
2022-11-30T05:22:30.401Z,76.05
2022-11-30T05:23:30.381Z,75.73
2022-11-30T05:24:30.351Z,75.75
2022-11-30T05:25:30.337Z,75.79
2022-11-30T05:26:30.355Z,75.89
2022-11-30T05:27:30.318Z,75.79
2022-11-30T05:28:30.315Z,75.90
2022-11-30T05:29:30.294Z,75.91
2022-11-30T05:30:30.272Z,76.08
2022-11-30T05:31:30.334Z,76.05
2022-11-30T05:32:30.255Z,76.05
2022-11-30T05:33:30.253Z,76.05
2022-11-30T05:34:30.232Z,75.93
2022-11-30T05:35:30.230Z,75.82
2022-11-30T05:36:30.188Z,75.86
2022-11-30T05:37:30.200Z,76.19
2022-11-30T05:38:30.182Z,76.11
2022-11-30T05:39:30.158Z,76.28
2022-11-30T05:40:30.163Z,76.09
2022-11-30T05:41:30.137Z,75.98
2022-11-30T05:42:30.124Z,75.77
2022-11-30T05:43:30.135Z,75.72
2022-11-30T05:44:30.090Z,75.68
2022-11-30T05:45:30.114Z,75.93
2022-11-30T05:46:30.140Z,75.65
2022-11-30T05:47:30.052Z,75.86
2022-11-30T05:48:30.031Z,75.63
2022-11-30T05:49:30.183Z,75.90
2022-11-30T05:50:30.041Z,76.15
2022-11-30T05:51:30.024Z,76.02
2022-11-30T05:52:29.997Z,76.09
2022-11-30T05:53:29.978Z,76.09
2022-11-30T05:54:29.981Z,75.63
2022-11-30T05:55:29.949Z,75.74
2022-11-30T05:56:29.938Z,75.69
2022-11-30T05:57:29.954Z,75.26
2022-11-30T05:58:29.910Z,75.32
2022-11-30T05:59:29.900Z,75.75
2022-11-30T06:00:29.911Z,75.80
2022-11-30T06:01:29.892Z,75.59
2022-11-30T06:02:30.033Z,75.36
2022-11-30T06:03:29.916Z,75.40
2022-11-30T06:04:29.863Z,75.20
2022-11-30T06:05:29.836Z,75.16
2022-11-30T06:06:29.824Z,75.33
2022-11-30T06:07:29.903Z,75.36
2022-11-30T06:08:29.775Z,75.75
2022-11-30T06:09:29.773Z,75.80
2022-11-30T06:10:29.755Z,75.67
2022-11-30T06:11:29.738Z,75.57
2022-11-30T06:12:29.739Z,75.47
2022-11-30T06:13:29.736Z,75.26
2022-11-30T06:14:29.719Z,74.77
2022-11-30T06:15:29.711Z,75.02
2022-11-30T06:16:29.728Z,75.00
2022-11-30T06:17:29.670Z,75.28
2022-11-30T06:18:29.710Z,75.09
2022-11-30T06:19:29.714Z,74.87
2022-11-30T06:20:29.641Z,74.87
2022-11-30T06:22:52.337Z,74.51
2022-11-30T06:23:53.285Z,74.61
2022-11-30T06:24:53.435Z,74.64
2022-11-30T06:25:53.279Z,74.85
2022-11-30T06:26:53.246Z,74.59
2022-11-30T06:27:53.412Z,74.54
2022-11-30T06:28:53.225Z,74.49
2022-11-30T06:29:53.205Z,74.40
2022-11-30T06:30:53.197Z,74.65
2022-11-30T06:31:53.244Z,74.61
2022-11-30T06:32:53.168Z,74.44
2022-11-30T06:33:53.149Z,74.42
2022-11-30T06:34:53.139Z,74.48
2022-11-30T06:35:53.132Z,74.63
2022-11-30T06:36:53.119Z,74.74
2022-11-30T06:37:53.105Z,74.79
2022-11-30T06:38:53.085Z,74.74
2022-11-30T06:40:08.631Z,74.61
2022-11-30T06:40:53.067Z,74.74
2022-11-30T06:41:54.626Z,74.70
2022-11-30T06:42:53.046Z,74.92
2022-11-30T06:43:53.027Z,75.06
2022-11-30T06:44:53.019Z,75.20
2022-11-30T06:45:53.071Z,75.08
2022-11-30T06:46:53.012Z,75.00
2022-11-30T06:47:52.974Z,75.00
2022-11-30T06:48:52.980Z,75.01
2022-11-30T06:49:52.942Z,74.75
2022-11-30T06:50:52.931Z,74.75
2022-11-30T06:51:52.932Z,75.08
2022-11-30T06:52:52.931Z,75.22
2022-11-30T06:53:52.906Z,74.84
2022-11-30T06:54:52.890Z,74.89
2022-11-30T06:55:52.876Z,74.83
2022-11-30T06:56:52.857Z,75.02
2022-11-30T06:57:52.868Z,74.92
2022-11-30T06:58:52.843Z,75.15
2022-11-30T06:59:52.823Z,74.82
2022-11-30T07:00:52.846Z,74.64
2022-11-30T07:01:52.802Z,74.66
2022-11-30T07:02:52.796Z,74.60
2022-11-30T07:03:52.808Z,74.64
2022-11-30T07:04:52.751Z,74.63
2022-11-30T07:05:52.735Z,74.47
2022-11-30T07:06:52.734Z,74.58
2022-11-30T07:07:52.862Z,74.21
2022-11-30T07:08:52.735Z,74.51
2022-11-30T07:09:52.705Z,74.37
2022-11-30T07:10:52.725Z,74.36
2022-11-30T07:11:52.662Z,74.33
2022-11-30T07:12:52.664Z,74.40
2022-11-30T07:13:52.650Z,74.30
2022-11-30T07:14:52.760Z,74.26
2022-11-30T07:15:52.704Z,74.75
2022-11-30T07:16:52.632Z,74.67
2022-11-30T07:17:52.608Z,74.45
2022-11-30T07:18:52.577Z,74.66
2022-11-30T07:19:52.607Z,74.67
2022-11-30T07:20:52.602Z,74.51
2022-11-30T07:21:52.715Z,74.38
2022-11-30T07:22:52.555Z,74.23
2022-11-30T07:23:56.624Z,74.14
2022-11-30T07:24:52.510Z,74.16
2022-11-30T07:25:52.481Z,74.27
2022-11-30T07:26:52.489Z,74.24
2022-11-30T07:27:52.460Z,74.04
2022-11-30T07:28:52.488Z,74.00
2022-11-30T07:29:52.440Z,74.15
2022-11-30T07:30:52.446Z,74.20
2022-11-30T07:31:52.452Z,74.33
2022-11-30T07:32:52.395Z,74.32
2022-11-30T07:33:52.381Z,74.25
2022-11-30T07:34:52.378Z,74.12
2022-11-30T07:35:52.537Z,74.30
2022-11-30T07:36:52.363Z,74.35
2022-11-30T07:37:52.329Z,74.15
2022-11-30T07:38:52.338Z,74.03
2022-11-30T07:39:52.303Z,74.06
2022-11-30T07:40:52.299Z,74.51
2022-11-30T07:41:52.319Z,74.39
2022-11-30T07:42:52.265Z,74.05
2022-11-30T07:43:52.258Z,73.97
2022-11-30T07:44:58.190Z,73.93
2022-11-30T07:45:52.281Z,74.30
2022-11-30T07:46:52.221Z,74.53
2022-11-30T07:47:52.207Z,74.11
2022-11-30T07:48:52.209Z,73.99
2022-11-30T07:49:52.198Z,74.25
2022-11-30T07:50:52.160Z,74.41
2022-11-30T07:51:52.146Z,74.33
2022-11-30T07:52:52.138Z,74.26
2022-11-30T07:53:52.275Z,74.01
2022-11-30T07:54:52.211Z,74.28
2022-11-30T07:55:56.882Z,74.32
2022-11-30T07:56:52.090Z,74.21
2022-11-30T07:57:52.111Z,74.03
2022-11-30T07:58:52.063Z,74.12
2022-11-30T07:59:52.052Z,74.19
2022-11-30T08:00:52.179Z,74.53
2022-11-30T08:01:52.105Z,74.69
2022-11-30T08:02:52.003Z,74.55
2022-11-30T08:03:51.999Z,74.10
2022-11-30T08:04:52.257Z,73.85
2022-11-30T08:05:51.956Z,73.94
2022-11-30T08:06:51.949Z,73.93
2022-11-30T08:07:52.049Z,73.98
2022-11-30T08:08:51.921Z,74.03
2022-11-30T08:09:51.920Z,74.14
2022-11-30T08:10:51.902Z,74.17
2022-11-30T08:11:51.925Z,74.35
2022-11-30T08:12:51.869Z,74.45
2022-11-30T08:13:52.072Z,74.49
2022-11-30T08:15:18.794Z,74.58
2022-11-30T08:15:51.883Z,74.43
2022-11-30T08:16:51.946Z,74.57
2022-11-30T08:17:51.851Z,74.76
2022-11-30T08:18:51.826Z,74.57
2022-11-30T08:19:51.793Z,74.39
2022-11-30T08:20:51.774Z,74.56
2022-11-30T08:21:51.787Z,74.83
2022-11-30T08:22:51.763Z,74.89
2022-11-30T08:23:51.844Z,74.53
2022-11-30T08:24:51.953Z,74.33
2022-11-30T08:25:51.700Z,74.37
2022-11-30T08:26:51.793Z,74.51
2022-11-30T08:28:02.080Z,74.55
2022-11-30T08:28:51.694Z,74.54
2022-11-30T08:29:51.704Z,74.33
2022-11-30T08:30:51.666Z,74.36
2022-11-30T08:31:51.618Z,74.72
2022-11-30T08:32:51.630Z,74.46
2022-11-30T08:33:51.606Z,74.51
2022-11-30T08:34:51.613Z,74.46
2022-11-30T08:35:51.579Z,74.25
2022-11-30T08:36:52.023Z,74.29
2022-11-30T08:37:51.589Z,74.27
2022-11-30T08:38:51.551Z,74.42
2022-11-30T08:39:51.529Z,74.60
2022-11-30T08:42:15.121Z,74.42
2022-11-30T08:43:16.069Z,74.52
2022-11-30T08:44:16.076Z,74.58
2022-11-30T08:45:16.150Z,74.57
2022-11-30T08:46:49.182Z,74.48
2022-11-30T08:47:16.207Z,74.45
2022-11-30T08:48:16.011Z,74.48
2022-11-30T08:49:24.455Z,74.46
2022-11-30T08:50:15.997Z,74.50
2022-11-30T08:51:15.983Z,74.52
2022-11-30T08:52:17.927Z,74.71
2022-11-30T08:53:15.950Z,74.88
2022-11-30T08:54:15.938Z,74.98
2022-11-30T08:55:15.938Z,74.92
2022-11-30T08:56:15.914Z,74.89
2022-11-30T08:57:15.906Z,74.92
2022-11-30T08:58:15.890Z,75.01
2022-11-30T08:59:15.881Z,74.78
2022-11-30T09:00:15.874Z,74.78
2022-11-30T09:01:15.846Z,74.65
2022-11-30T09:02:15.911Z,74.63
2022-11-30T09:03:15.821Z,74.70
2022-11-30T09:04:15.832Z,74.79
2022-11-30T09:05:15.803Z,74.72
2022-11-30T09:06:15.815Z,74.71
2022-11-30T09:07:15.790Z,74.75
2022-11-30T09:08:15.770Z,74.77
2022-11-30T09:09:15.742Z,74.76
2022-11-30T09:10:15.730Z,74.82
2022-11-30T09:11:15.720Z,74.87
2022-11-30T09:12:15.747Z,74.68
2022-11-30T09:13:15.698Z,74.69
2022-11-30T09:14:15.686Z,74.70
2022-11-30T09:15:15.673Z,75.02
2022-11-30T09:16:15.703Z,75.12
2022-11-30T09:17:15.679Z,75.19
2022-11-30T09:18:15.655Z,75.08
2022-11-30T09:19:15.621Z,74.90
2022-11-30T09:20:15.617Z,74.87
2022-11-30T09:21:15.585Z,74.90
2022-11-30T09:22:15.585Z,74.96
2022-11-30T09:23:15.570Z,75.01
2022-11-30T09:24:15.582Z,74.92
2022-11-30T09:25:15.563Z,74.92
2022-11-30T09:26:15.522Z,74.97
2022-11-30T09:27:15.557Z,75.03
2022-11-30T09:28:15.736Z,75.18
2022-11-30T09:29:15.509Z,75.05
2022-11-30T09:30:15.487Z,74.94
2022-11-30T09:31:15.501Z,75.15
2022-11-30T09:32:15.455Z,75.02
2022-11-30T09:33:15.459Z,75.17
2022-11-30T09:34:15.428Z,74.92
2022-11-30T09:35:15.417Z,74.88
2022-11-30T09:36:15.433Z,74.88
2022-11-30T09:37:15.409Z,75.32
2022-11-30T09:38:15.391Z,75.54
2022-11-30T09:39:15.428Z,75.49
2022-11-30T09:40:15.404Z,75.63
2022-11-30T09:41:15.325Z,75.85
2022-11-30T09:42:15.327Z,75.90
2022-11-30T09:43:15.297Z,75.86
2022-11-30T09:44:15.298Z,75.65
2022-11-30T09:45:15.272Z,75.86
2022-11-30T09:46:15.292Z,75.77
2022-11-30T09:47:15.255Z,75.17
2022-11-30T09:48:15.238Z,74.93
2022-11-30T09:49:15.231Z,74.69
2022-11-30T09:50:15.229Z,74.51
2022-11-30T09:51:15.192Z,74.50
2022-11-30T09:52:15.192Z,74.44
2022-11-30T09:53:15.162Z,74.52
2022-11-30T09:54:15.180Z,74.35
2022-11-30T09:55:15.149Z,74.48
2022-11-30T09:56:15.170Z,74.54
2022-11-30T09:57:15.247Z,74.17
2022-11-30T09:58:27.347Z,74.30
2022-11-30T09:59:15.084Z,74.08
2022-11-30T10:00:15.107Z,73.75
2022-11-30T10:01:15.095Z,73.99
2022-11-30T10:02:15.185Z,73.96
2022-11-30T10:03:15.226Z,73.93
2022-11-30T10:04:15.020Z,74.08
2022-11-30T10:05:15.011Z,73.67
2022-11-30T10:06:15.013Z,73.75
2022-11-30T10:07:14.975Z,73.83
2022-11-30T10:08:17.761Z,73.53
2022-11-30T10:09:14.960Z,73.16
2022-11-30T10:10:31.832Z,73.39
2022-11-30T10:11:14.973Z,73.00
2022-11-30T10:12:14.916Z,73.12
2022-11-30T10:13:14.905Z,73.38
2022-11-30T10:14:14.886Z,73.62
2022-11-30T10:15:14.865Z,73.95
2022-11-30T10:16:14.951Z,73.47
2022-11-30T10:17:14.847Z,73.36
2022-11-30T10:18:14.829Z,73.15
2022-11-30T10:19:14.818Z,72.98
2022-11-30T10:20:14.847Z,72.90
2022-11-30T10:21:14.807Z,73.11
2022-11-30T10:22:14.785Z,73.11
2022-11-30T10:23:14.779Z,73.06
2022-11-30T10:24:14.807Z,72.93
2022-11-30T10:25:14.738Z,73.03
2022-11-30T10:26:14.747Z,73.27
2022-11-30T10:27:14.720Z,73.24
2022-11-30T10:28:44.817Z,73.16
2022-11-30T10:29:14.696Z,72.90
2022-11-30T10:30:14.678Z,73.10
2022-11-30T10:31:14.750Z,73.23
2022-11-30T10:32:14.643Z,73.27
2022-11-30T10:33:14.650Z,73.17
2022-11-30T10:34:14.631Z,73.30
2022-11-30T10:35:14.599Z,73.61
2022-11-30T10:36:14.609Z,73.08
2022-11-30T10:37:14.593Z,72.92
2022-11-30T10:38:14.597Z,73.03
2022-11-30T10:39:14.634Z,73.02
2022-11-30T10:40:14.552Z,73.24
2022-11-30T10:41:14.543Z,73.23
2022-11-30T10:42:14.539Z,72.89
2022-11-30T10:43:14.517Z,72.80
2022-11-30T10:44:14.486Z,72.99
2022-11-30T10:45:14.603Z,73.12
2022-11-30T10:46:17.121Z,72.71
2022-11-30T10:47:14.463Z,72.40
2022-11-30T10:48:14.444Z,72.40
2022-11-30T10:49:14.425Z,72.59
2022-11-30T10:50:14.503Z,72.72
2022-11-30T10:51:14.403Z,72.73
2022-11-30T10:52:14.385Z,72.94
2022-11-30T10:53:14.369Z,73.03
2022-11-30T10:54:14.352Z,72.67
2022-11-30T10:55:14.361Z,72.53
2022-11-30T10:56:14.332Z,72.59
2022-11-30T10:57:14.328Z,72.56
2022-11-30T10:58:14.335Z,72.31
2022-11-30T10:59:14.290Z,72.20
2022-11-30T11:00:14.365Z,72.26
2022-11-30T11:01:14.351Z,72.30
2022-11-30T11:02:14.296Z,72.19
2022-11-30T11:03:14.251Z,72.00
2022-11-30T11:04:14.274Z,72.28
2022-11-30T11:05:14.204Z,72.34
2022-11-30T11:06:14.194Z,72.69
2022-11-30T11:07:14.290Z,72.86
2022-11-30T11:08:14.283Z,72.81
2022-11-30T11:09:14.174Z,72.70
2022-11-30T11:10:14.274Z,72.57
2022-11-30T11:11:14.143Z,72.60
2022-11-30T11:12:14.108Z,72.86
2022-11-30T11:13:14.113Z,72.61
2022-11-30T11:14:14.105Z,72.52
2022-11-30T11:15:14.094Z,72.47
2022-11-30T11:16:14.145Z,72.40
2022-11-30T11:17:14.055Z,72.37
2022-11-30T11:18:14.034Z,72.37
2022-11-30T11:19:14.022Z,72.24
2022-11-30T11:20:14.039Z,72.45
2022-11-30T11:21:13.997Z,72.41
2022-11-30T11:22:13.971Z,72.25
2022-11-30T11:23:13.968Z,72.21
2022-11-30T11:24:13.955Z,71.95
2022-11-30T11:25:13.949Z,72.01
2022-11-30T11:26:13.929Z,72.01
2022-11-30T11:27:13.930Z,71.72
2022-11-30T11:28:13.908Z,71.68
2022-11-30T11:29:13.888Z,71.93
2022-11-30T11:30:13.884Z,72.30
2022-11-30T11:31:13.914Z,72.28
2022-11-30T11:32:13.854Z,72.28
2022-11-30T11:33:13.854Z,72.16
2022-11-30T11:34:13.831Z,72.07
2022-11-30T11:35:13.802Z,72.15
2022-11-30T11:36:13.806Z,72.15
2022-11-30T11:37:13.784Z,72.60
2022-11-30T11:38:13.839Z,72.12
2022-11-30T11:39:13.751Z,71.86
2022-11-30T11:40:13.770Z,71.80
2022-11-30T11:41:13.722Z,71.75
2022-11-30T11:42:17.679Z,71.64
2022-11-30T11:43:13.753Z,71.59
2022-11-30T11:44:13.688Z,71.65
2022-11-30T11:45:13.686Z,71.71
2022-11-30T11:46:13.716Z,71.64
2022-11-30T11:47:13.650Z,71.38
2022-11-30T11:48:13.631Z,71.25
2022-11-30T11:49:13.638Z,71.15
2022-11-30T11:50:13.654Z,71.16
2022-11-30T11:51:13.603Z,71.40
2022-11-30T11:52:13.571Z,71.31
2022-11-30T11:53:13.613Z,71.45
2022-11-30T11:54:13.578Z,71.26
2022-11-30T11:55:13.538Z,71.07
2022-11-30T11:56:13.555Z,70.99
2022-11-30T11:57:13.522Z,71.35
2022-11-30T11:58:13.507Z,71.55
2022-11-30T11:59:13.484Z,71.45
2022-11-30T12:00:16.395Z,71.39
2022-11-30T12:01:38.703Z,71.56
2022-11-30T12:02:13.499Z,71.82
2022-11-30T12:03:13.439Z,71.60
2022-11-30T12:04:13.499Z,70.25
2022-11-30T12:05:13.426Z,70.18
2022-11-30T12:06:13.390Z,70.52
2022-11-30T12:07:16.731Z,70.71
2022-11-30T12:08:13.392Z,70.91
2022-11-30T12:09:13.355Z,70.90
2022-11-30T12:10:43.531Z,70.88
2022-11-30T12:11:13.346Z,71.01
2022-11-30T12:12:13.331Z,70.92
2022-11-30T12:13:13.301Z,70.97
2022-11-30T12:14:13.280Z,70.78
2022-11-30T12:15:13.280Z,71.06
2022-11-30T12:16:13.315Z,70.89
2022-11-30T12:17:13.291Z,70.67
2022-11-30T12:18:19.435Z,70.52
2022-11-30T12:19:13.231Z,70.56
2022-11-30T12:20:13.214Z,70.59
2022-11-30T12:21:13.210Z,70.86
2022-11-30T12:22:13.193Z,71.22
2022-11-30T12:23:13.165Z,71.03
2022-11-30T12:24:13.154Z,70.96
2022-11-30T12:25:13.152Z,70.92
2022-11-30T12:26:13.122Z,71.04
2022-11-30T12:27:13.190Z,70.77
2022-11-30T12:28:13.750Z,70.69
2022-11-30T12:29:13.106Z,70.92
2022-11-30T12:30:13.120Z,71.30
2022-11-30T12:31:13.113Z,70.91
2022-11-30T12:32:13.092Z,70.97
2022-11-30T12:33:13.058Z,70.96
2022-11-30T12:34:13.056Z,71.15
2022-11-30T12:35:13.012Z,71.26
2022-11-30T12:36:13.020Z,71.30
2022-11-30T12:37:12.984Z,71.47
2022-11-30T12:38:12.965Z,71.51
2022-11-30T12:39:12.959Z,71.71
2022-11-30T12:40:12.937Z,71.76
2022-11-30T12:41:12.930Z,72.15
2022-11-30T12:42:12.935Z,71.96
2022-11-30T12:43:12.904Z,71.84
2022-11-30T12:44:12.896Z,71.64
2022-11-30T12:45:12.871Z,71.66
2022-11-30T12:46:12.913Z,71.71
2022-11-30T12:47:12.871Z,71.65
2022-11-30T12:48:12.838Z,71.72
2022-11-30T12:49:12.955Z,71.97
2022-11-30T12:50:12.807Z,72.14
2022-11-30T12:51:12.823Z,72.14
2022-11-30T12:52:12.775Z,72.18
2022-11-30T12:53:12.772Z,72.10
2022-11-30T12:54:12.749Z,72.20
2022-11-30T12:55:12.741Z,71.93